sensor_id;sensor_type;location;lat;lon;timestamp;P1;durP1;ratioP1;P2;durP2;ratioP2
18947;SDS011;9607;51.600;7.558;2023-05-10T00:00:11;7.05;;;4.90;;
18947;SDS011;9607;51.600;7.558;2023-05-10T00:02:39;7.90;;;5.22;;
18947;SDS011;9607;51.600;7.558;2023-05-10T00:05:06;7.18;;;4.60;;
18947;SDS011;9607;51.600;7.558;2023-05-10T00:07:34;7.05;;;5.50;;
18947;SDS011;9607;51.600;7.558;2023-05-10T00:10:01;8.43;;;5.40;;
18947;SDS011;9607;51.600;7.558;2023-05-10T00:12:28;12.38;;;7.20;;
18947;SDS011;9607;51.600;7.558;2023-05-10T00:14:54;16.52;;;8.57;;
18947;SDS011;9607;51.600;7.558;2023-05-10T00:17:23;9.68;;;5.93;;
18947;SDS011;9607;51.600;7.558;2023-05-10T00:19:49;8.48;;;5.30;;
18947;SDS011;9607;51.600;7.558;2023-05-10T00:22:16;7.32;;;5.30;;
18947;SDS011;9607;51.600;7.558;2023-05-10T00:24:43;9.73;;;5.75;;
18947;SDS011;9607;51.600;7.558;2023-05-10T00:27:10;9.85;;;5.78;;
18947;SDS011;9607;51.600;7.558;2023-05-10T00:29:37;9.30;;;5.63;;
18947;SDS011;9607;51.600;7.558;2023-05-10T00:32:04;8.32;;;5.55;;
18947;SDS011;9607;51.600;7.558;2023-05-10T00:34:33;7.43;;;4.93;;
18947;SDS011;9607;51.600;7.558;2023-05-10T00:36:59;9.27;;;5.93;;
18947;SDS011;9607;51.600;7.558;2023-05-10T00:39:26;8.48;;;6.18;;
18947;SDS011;9607;51.600;7.558;2023-05-10T00:41:53;9.20;;;6.22;;
18947;SDS011;9607;51.600;7.558;2023-05-10T00:44:20;10.38;;;7.20;;
18947;SDS011;9607;51.600;7.558;2023-05-10T00:46:47;10.30;;;6.80;;
18947;SDS011;9607;51.600;7.558;2023-05-10T00:49:15;10.10;;;7.10;;
18947;SDS011;9607;51.600;7.558;2023-05-10T00:51:44;11.65;;;6.88;;
18947;SDS011;9607;51.600;7.558;2023-05-10T00:54:11;9.65;;;5.93;;
18947;SDS011;9607;51.600;7.558;2023-05-10T00:56:40;9.88;;;5.72;;
18947;SDS011;9607;51.600;7.558;2023-05-10T00:59:09;9.32;;;5.40;;
18947;SDS011;9607;51.600;7.558;2023-05-10T01:01:36;9.43;;;6.35;;
18947;SDS011;9607;51.600;7.558;2023-05-10T01:04:03;8.85;;;5.85;;
18947;SDS011;9607;51.600;7.558;2023-05-10T01:06:30;10.02;;;6.47;;
18947;SDS011;9607;51.600;7.558;2023-05-10T01:08:59;10.98;;;7.10;;
18947;SDS011;9607;51.600;7.558;2023-05-10T01:11:25;9.98;;;6.53;;
18947;SDS011;9607;51.600;7.558;2023-05-10T01:13:54;11.82;;;7.15;;
18947;SDS011;9607;51.600;7.558;2023-05-10T01:16:23;12.48;;;7.72;;
18947;SDS011;9607;51.600;7.558;2023-05-10T01:18:50;11.60;;;7.53;;
18947;SDS011;9607;51.600;7.558;2023-05-10T01:21:19;17.00;;;9.77;;
18947;SDS011;9607;51.600;7.558;2023-05-10T01:27:02;20.83;;;10.57;;
18947;SDS011;9607;51.600;7.558;2023-05-10T01:30:02;13.65;;;7.60;;
18947;SDS011;9607;51.600;7.558;2023-05-10T01:32:40;12.27;;;7.18;;
18947;SDS011;9607;51.600;7.558;2023-05-10T01:35:16;11.23;;;6.72;;
18947;SDS011;9607;51.600;7.558;2023-05-10T01:37:45;9.95;;;6.28;;
18947;SDS011;9607;51.600;7.558;2023-05-10T01:40:17;12.48;;;7.30;;
18947;SDS011;9607;51.600;7.558;2023-05-10T01:42:51;20.60;;;11.40;;
18947;SDS011;9607;51.600;7.558;2023-05-10T01:45:27;19.55;;;10.80;;
18947;SDS011;9607;51.600;7.558;2023-05-10T01:48:01;19.95;;;9.43;;
18947;SDS011;9607;51.600;7.558;2023-05-10T01:50:32;16.73;;;8.38;;
18947;SDS011;9607;51.600;7.558;2023-05-10T01:53:00;13.70;;;7.68;;
18947;SDS011;9607;51.600;7.558;2023-05-10T01:55:30;21.10;;;11.32;;
18947;SDS011;9607;51.600;7.558;2023-05-10T01:58:01;25.02;;;13.70;;
18947;SDS011;9607;51.600;7.558;2023-05-10T02:00:31;26.45;;;13.50;;
18947;SDS011;9607;51.600;7.558;2023-05-10T02:03:01;26.08;;;13.15;;
18947;SDS011;9607;51.600;7.558;2023-05-10T02:05:32;26.67;;;14.02;;
18947;SDS011;9607;51.600;7.558;2023-05-10T02:08:00;31.50;;;14.55;;
18947;SDS011;9607;51.600;7.558;2023-05-10T02:10:29;32.88;;;16.27;;
18947;SDS011;9607;51.600;7.558;2023-05-10T02:12:58;38.33;;;17.35;;
18947;SDS011;9607;51.600;7.558;2023-05-10T02:15:25;30.42;;;16.02;;
18947;SDS011;9607;51.600;7.558;2023-05-10T02:17:54;26.60;;;13.95;;
18947;SDS011;9607;51.600;7.558;2023-05-10T02:20:24;26.77;;;13.57;;
18947;SDS011;9607;51.600;7.558;2023-05-10T02:22:52;31.83;;;14.18;;
18947;SDS011;9607;51.600;7.558;2023-05-10T02:25:22;39.70;;;13.85;;
18947;SDS011;9607;51.600;7.558;2023-05-10T02:27:50;32.50;;;12.65;;
18947;SDS011;9607;51.600;7.558;2023-05-10T02:30:20;33.65;;;12.88;;
18947;SDS011;9607;51.600;7.558;2023-05-10T02:32:47;29.05;;;11.70;;
18947;SDS011;9607;51.600;7.558;2023-05-10T02:35:15;30.42;;;10.57;;
18947;SDS011;9607;51.600;7.558;2023-05-10T02:37:44;22.98;;;8.75;;
18947;SDS011;9607;51.600;7.558;2023-05-10T02:40:12;21.33;;;8.98;;
18947;SDS011;9607;51.600;7.558;2023-05-10T02:42:41;18.67;;;7.97;;
18947;SDS011;9607;51.600;7.558;2023-05-10T02:45:11;17.02;;;7.65;;
18947;SDS011;9607;51.600;7.558;2023-05-10T02:47:40;16.70;;;6.88;;
18947;SDS011;9607;51.600;7.558;2023-05-10T02:50:09;13.48;;;6.15;;
18947;SDS011;9607;51.600;7.558;2023-05-10T02:52:38;14.38;;;6.32;;
18947;SDS011;9607;51.600;7.558;2023-05-10T02:55:09;11.23;;;5.97;;
18947;SDS011;9607;51.600;7.558;2023-05-10T02:57:40;12.32;;;5.65;;
18947;SDS011;9607;51.600;7.558;2023-05-10T03:00:12;8.40;;;5.05;;
18947;SDS011;9607;51.600;7.558;2023-05-10T03:02:39;9.80;;;5.57;;
18947;SDS011;9607;51.600;7.558;2023-05-10T03:05:06;13.05;;;5.32;;
18947;SDS011;9607;51.600;7.558;2023-05-10T03:07:34;9.75;;;4.78;;
18947;SDS011;9607;51.600;7.558;2023-05-10T03:10:01;10.85;;;4.82;;
18947;SDS011;9607;51.600;7.558;2023-05-10T03:12:33;9.00;;;4.22;;
18947;SDS011;9607;51.600;7.558;2023-05-10T03:15:13;12.32;;;5.25;;
18947;SDS011;9607;51.600;7.558;2023-05-10T03:17:46;10.90;;;4.50;;
18947;SDS011;9607;51.600;7.558;2023-05-10T03:20:20;10.65;;;3.90;;
18947;SDS011;9607;51.600;7.558;2023-05-10T03:22:51;8.65;;;3.60;;
18947;SDS011;9607;51.600;7.558;2023-05-10T03:25:21;3.92;;;2.58;;
18947;SDS011;9607;51.600;7.558;2023-05-10T03:27:51;3.58;;;2.55;;
18947;SDS011;9607;51.600;7.558;2023-05-10T03:30:18;4.65;;;2.85;;
18947;SDS011;9607;51.600;7.558;2023-05-10T03:32:46;5.25;;;2.22;;
18947;SDS011;9607;51.600;7.558;2023-05-10T03:35:12;4.35;;;2.92;;
18947;SDS011;9607;51.600;7.558;2023-05-10T03:37:39;2.55;;;2.10;;
18947;SDS011;9607;51.600;7.558;2023-05-10T03:40:07;2.70;;;1.98;;
18947;SDS011;9607;51.600;7.558;2023-05-10T03:42:35;1.63;;;1.50;;
18947;SDS011;9607;51.600;7.558;2023-05-10T03:45:03;2.42;;;1.90;;
18947;SDS011;9607;51.600;7.558;2023-05-10T03:47:30;4.85;;;2.22;;
18947;SDS011;9607;51.600;7.558;2023-05-10T03:49:57;2.85;;;1.95;;
18947;SDS011;9607;51.600;7.558;2023-05-10T03:52:24;4.40;;;2.45;;
18947;SDS011;9607;51.600;7.558;2023-05-10T03:54:51;2.70;;;2.20;;
18947;SDS011;9607;51.600;7.558;2023-05-10T03:57:18;3.47;;;2.38;;
18947;SDS011;9607;51.600;7.558;2023-05-10T03:59:45;7.90;;;4.65;;
18947;SDS011;9607;51.600;7.558;2023-05-10T04:02:13;6.75;;;3.60;;
18947;SDS011;9607;51.600;7.558;2023-05-10T04:04:40;7.15;;;4.30;;
18947;SDS011;9607;51.600;7.558;2023-05-10T04:07:06;8.35;;;4.25;;
18947;SDS011;9607;51.600;7.558;2023-05-10T04:09:35;11.98;;;5.82;;
18947;SDS011;9607;51.600;7.558;2023-05-10T04:12:02;9.10;;;4.78;;
18947;SDS011;9607;51.600;7.558;2023-05-10T04:14:29;8.88;;;5.20;;
18947;SDS011;9607;51.600;7.558;2023-05-10T04:16:56;8.68;;;4.80;;
18947;SDS011;9607;51.600;7.558;2023-05-10T04:19:28;11.90;;;5.03;;
18947;SDS011;9607;51.600;7.558;2023-05-10T04:21:55;10.25;;;5.05;;
18947;SDS011;9607;51.600;7.558;2023-05-10T04:24:22;9.60;;;4.80;;
18947;SDS011;9607;51.600;7.558;2023-05-10T04:26:49;10.57;;;5.45;;
18947;SDS011;9607;51.600;7.558;2023-05-10T04:29:16;7.88;;;4.25;;
18947;SDS011;9607;51.600;7.558;2023-05-10T04:31:43;9.68;;;4.80;;
18947;SDS011;9607;51.600;7.558;2023-05-10T04:34:10;7.95;;;3.88;;
18947;SDS011;9607;51.600;7.558;2023-05-10T04:36:38;6.90;;;3.72;;
18947;SDS011;9607;51.600;7.558;2023-05-10T04:39:05;8.90;;;4.50;;
18947;SDS011;9607;51.600;7.558;2023-05-10T04:41:32;8.70;;;4.30;;
18947;SDS011;9607;51.600;7.558;2023-05-10T04:43:59;10.55;;;4.65;;
18947;SDS011;9607;51.600;7.558;2023-05-10T04:46:26;7.40;;;3.97;;
18947;SDS011;9607;51.600;7.558;2023-05-10T04:48:52;13.48;;;6.68;;
18947;SDS011;9607;51.600;7.558;2023-05-10T04:51:19;18.45;;;7.32;;
18947;SDS011;9607;51.600;7.558;2023-05-10T04:53:48;16.48;;;6.63;;
18947;SDS011;9607;51.600;7.558;2023-05-10T04:56:15;13.05;;;5.95;;
18947;SDS011;9607;51.600;7.558;2023-05-10T04:58:42;16.10;;;7.93;;
18947;SDS011;9607;51.600;7.558;2023-05-10T05:01:09;15.93;;;6.72;;
18947;SDS011;9607;51.600;7.558;2023-05-10T05:03:36;15.48;;;7.45;;
18947;SDS011;9607;51.600;7.558;2023-05-10T05:06:03;19.65;;;8.60;;
18947;SDS011;9607;51.600;7.558;2023-05-10T05:08:30;17.88;;;8.95;;
18947;SDS011;9607;51.600;7.558;2023-05-10T05:10:59;33.25;;;13.30;;
18947;SDS011;9607;51.600;7.558;2023-05-10T05:13:25;43.25;;;17.73;;
18947;SDS011;9607;51.600;7.558;2023-05-10T05:15:52;54.15;;;19.40;;
18947;SDS011;9607;51.600;7.558;2023-05-10T05:18:19;49.03;;;16.67;;
18947;SDS011;9607;51.600;7.558;2023-05-10T05:20:46;37.70;;;15.38;;
18947;SDS011;9607;51.600;7.558;2023-05-10T05:23:13;33.60;;;13.35;;
18947;SDS011;9607;51.600;7.558;2023-05-10T05:25:40;31.10;;;14.00;;
18947;SDS011;9607;51.600;7.558;2023-05-10T05:28:08;32.40;;;14.25;;
18947;SDS011;9607;51.600;7.558;2023-05-10T05:30:35;40.15;;;15.07;;
18947;SDS011;9607;51.600;7.558;2023-05-10T05:33:02;32.63;;;13.68;;
18947;SDS011;9607;51.600;7.558;2023-05-10T05:35:29;35.13;;;15.18;;
18947;SDS011;9607;51.600;7.558;2023-05-10T05:37:55;34.38;;;15.40;;
18947;SDS011;9607;51.600;7.558;2023-05-10T05:40:22;37.58;;;15.25;;
18947;SDS011;9607;51.600;7.558;2023-05-10T05:42:49;44.80;;;19.17;;
18947;SDS011;9607;51.600;7.558;2023-05-10T05:45:17;49.10;;;18.75;;
18947;SDS011;9607;51.600;7.558;2023-05-10T05:47:45;46.38;;;19.25;;
18947;SDS011;9607;51.600;7.558;2023-05-10T05:50:12;51.85;;;19.98;;
18947;SDS011;9607;51.600;7.558;2023-05-10T05:52:39;43.28;;;17.27;;
18947;SDS011;9607;51.600;7.558;2023-05-10T05:55:06;32.47;;;13.98;;
18947;SDS011;9607;51.600;7.558;2023-05-10T05:57:33;27.98;;;13.05;;
18947;SDS011;9607;51.600;7.558;2023-05-10T06:00:00;38.15;;;15.98;;
18947;SDS011;9607;51.600;7.558;2023-05-10T06:02:29;34.83;;;14.70;;
18947;SDS011;9607;51.600;7.558;2023-05-10T06:04:55;43.05;;;18.20;;
18947;SDS011;9607;51.600;7.558;2023-05-10T06:07:22;65.05;;;22.58;;
18947;SDS011;9607;51.600;7.558;2023-05-10T06:09:50;68.50;;;26.38;;
18947;SDS011;9607;51.600;7.558;2023-05-10T06:12:17;50.30;;;21.45;;
18947;SDS011;9607;51.600;7.558;2023-05-10T06:14:43;46.67;;;19.23;;
18947;SDS011;9607;51.600;7.558;2023-05-10T06:17:10;90.53;;;31.80;;
18947;SDS011;9607;51.600;7.558;2023-05-10T06:19:38;86.78;;;30.98;;
18947;SDS011;9607;51.600;7.558;2023-05-10T06:22:05;73.57;;;28.65;;
18947;SDS011;9607;51.600;7.558;2023-05-10T06:24:32;76.15;;;27.63;;
18947;SDS011;9607;51.600;7.558;2023-05-10T06:26:59;59.40;;;25.52;;
18947;SDS011;9607;51.600;7.558;2023-05-10T06:29:27;61.80;;;24.98;;
18947;SDS011;9607;51.600;7.558;2023-05-10T06:31:53;65.68;;;28.33;;
18947;SDS011;9607;51.600;7.558;2023-05-10T06:34:20;64.93;;;27.85;;
18947;SDS011;9607;51.600;7.558;2023-05-10T06:36:48;63.13;;;29.67;;
18947;SDS011;9607;51.600;7.558;2023-05-10T06:39:15;75.38;;;31.92;;
18947;SDS011;9607;51.600;7.558;2023-05-10T06:41:42;98.07;;;37.53;;
18947;SDS011;9607;51.600;7.558;2023-05-10T06:44:09;88.60;;;36.33;;
18947;SDS011;9607;51.600;7.558;2023-05-10T06:46:36;92.65;;;35.83;;
18947;SDS011;9607;51.600;7.558;2023-05-10T06:49:03;96.32;;;38.25;;
18947;SDS011;9607;51.600;7.558;2023-05-10T06:51:30;89.88;;;36.58;;
18947;SDS011;9607;51.600;7.558;2023-05-10T06:53:59;91.53;;;36.55;;
18947;SDS011;9607;51.600;7.558;2023-05-10T06:56:26;90.18;;;35.75;;
18947;SDS011;9607;51.600;7.558;2023-05-10T06:58:53;64.40;;;28.80;;
18947;SDS011;9607;51.600;7.558;2023-05-10T07:01:20;67.00;;;30.30;;
18947;SDS011;9607;51.600;7.558;2023-05-10T07:03:47;74.35;;;31.70;;
18947;SDS011;9607;51.600;7.558;2023-05-10T07:06:14;71.00;;;33.10;;
18947;SDS011;9607;51.600;7.558;2023-05-10T07:08:41;62.08;;;29.27;;
18947;SDS011;9607;51.600;7.558;2023-05-10T07:11:09;61.38;;;30.35;;
18947;SDS011;9607;51.600;7.558;2023-05-10T07:13:36;58.22;;;30.63;;
18947;SDS011;9607;51.600;7.558;2023-05-10T07:16:04;57.35;;;31.38;;
18947;SDS011;9607;51.600;7.558;2023-05-10T07:18:31;49.45;;;27.27;;
18947;SDS011;9607;51.600;7.558;2023-05-10T07:20:58;40.08;;;25.08;;
18947;SDS011;9607;51.600;7.558;2023-05-10T07:23:25;50.83;;;28.13;;
18947;SDS011;9607;51.600;7.558;2023-05-10T07:25:52;43.78;;;25.10;;
18947;SDS011;9607;51.600;7.558;2023-05-10T07:28:20;53.40;;;28.38;;
18947;SDS011;9607;51.600;7.558;2023-05-10T07:30:49;56.97;;;30.45;;
18947;SDS011;9607;51.600;7.558;2023-05-10T07:33:16;43.42;;;26.00;;
18947;SDS011;9607;51.600;7.558;2023-05-10T07:35:43;47.15;;;28.45;;
18947;SDS011;9607;51.600;7.558;2023-05-10T07:38:10;35.97;;;24.02;;
18947;SDS011;9607;51.600;7.558;2023-05-10T07:40:37;34.47;;;23.50;;
18947;SDS011;9607;51.600;7.558;2023-05-10T07:43:05;29.75;;;21.15;;
18947;SDS011;9607;51.600;7.558;2023-05-10T07:45:34;35.10;;;23.85;;
18947;SDS011;9607;51.600;7.558;2023-05-10T07:48:01;44.08;;;28.52;;
18947;SDS011;9607;51.600;7.558;2023-05-10T07:50:28;36.67;;;25.63;;
18947;SDS011;9607;51.600;7.558;2023-05-10T07:52:55;42.92;;;30.50;;
18947;SDS011;9607;51.600;7.558;2023-05-10T07:55:22;40.75;;;28.65;;
18947;SDS011;9607;51.600;7.558;2023-05-10T07:57:49;45.70;;;32.22;;
18947;SDS011;9607;51.600;7.558;2023-05-10T08:00:17;43.88;;;31.52;;
18947;SDS011;9607;51.600;7.558;2023-05-10T08:02:46;41.65;;;32.53;;
18947;SDS011;9607;51.600;7.558;2023-05-10T08:05:13;44.92;;;29.92;;
18947;SDS011;9607;51.600;7.558;2023-05-10T08:07:40;41.03;;;30.25;;
18947;SDS011;9607;51.600;7.558;2023-05-10T08:10:08;43.95;;;33.35;;
18947;SDS011;9607;51.600;7.558;2023-05-10T08:12:36;45.13;;;32.22;;
18947;SDS011;9607;51.600;7.558;2023-05-10T08:15:04;40.33;;;30.23;;
18947;SDS011;9607;51.600;7.558;2023-05-10T08:17:32;43.75;;;32.33;;
18947;SDS011;9607;51.600;7.558;2023-05-10T08:20:00;44.08;;;31.52;;
18947;SDS011;9607;51.600;7.558;2023-05-10T08:22:27;46.55;;;33.85;;
18947;SDS011;9607;51.600;7.558;2023-05-10T08:24:54;41.97;;;32.63;;
18947;SDS011;9607;51.600;7.558;2023-05-10T08:27:21;43.80;;;33.05;;
18947;SDS011;9607;51.600;7.558;2023-05-10T08:29:48;39.00;;;29.85;;
18947;SDS011;9607;51.600;7.558;2023-05-10T08:32:14;40.47;;;31.95;;
18947;SDS011;9607;51.600;7.558;2023-05-10T08:34:41;34.90;;;28.30;;
18947;SDS011;9607;51.600;7.558;2023-05-10T08:37:09;32.97;;;28.08;;
18947;SDS011;9607;51.600;7.558;2023-05-10T08:39:38;35.60;;;28.42;;
18947;SDS011;9607;51.600;7.558;2023-05-10T08:42:05;37.22;;;28.90;;
18947;SDS011;9607;51.600;7.558;2023-05-10T08:44:34;35.40;;;27.60;;
18947;SDS011;9607;51.600;7.558;2023-05-10T08:47:02;40.10;;;29.70;;
18947;SDS011;9607;51.600;7.558;2023-05-10T08:49:31;38.97;;;29.88;;
18947;SDS011;9607;51.600;7.558;2023-05-10T08:52:00;34.10;;;27.10;;
18947;SDS011;9607;51.600;7.558;2023-05-10T08:54:32;28.70;;;24.38;;
18947;SDS011;9607;51.600;7.558;2023-05-10T08:56:59;35.25;;;25.65;;
18947;SDS011;9607;51.600;7.558;2023-05-10T08:59:27;31.50;;;25.27;;
18947;SDS011;9607;51.600;7.558;2023-05-10T09:01:55;29.48;;;24.58;;
18947;SDS011;9607;51.600;7.558;2023-05-10T09:04:23;27.23;;;22.10;;
18947;SDS011;9607;51.600;7.558;2023-05-10T09:06:51;29.67;;;23.67;;
18947;SDS011;9607;51.600;7.558;2023-05-10T09:09:18;34.20;;;25.75;;
18947;SDS011;9607;51.600;7.558;2023-05-10T09:11:48;29.60;;;23.05;;
18947;SDS011;9607;51.600;7.558;2023-05-10T09:14:15;30.00;;;22.52;;
18947;SDS011;9607;51.600;7.558;2023-05-10T09:16:42;31.95;;;22.85;;
18947;SDS011;9607;51.600;7.558;2023-05-10T09:19:09;28.23;;;22.48;;
18947;SDS011;9607;51.600;7.558;2023-05-10T09:21:36;32.50;;;24.42;;
18947;SDS011;9607;51.600;7.558;2023-05-10T09:24:04;28.73;;;22.58;;
18947;SDS011;9607;51.600;7.558;2023-05-10T09:26:32;29.40;;;22.58;;
18947;SDS011;9607;51.600;7.558;2023-05-10T09:29:02;27.58;;;21.33;;
18947;SDS011;9607;51.600;7.558;2023-05-10T09:31:46;28.15;;;21.13;;
18947;SDS011;9607;51.600;7.558;2023-05-10T09:34:16;20.27;;;17.40;;
18947;SDS011;9607;51.600;7.558;2023-05-10T09:36:50;23.35;;;18.02;;
18947;SDS011;9607;51.600;7.558;2023-05-10T09:39:19;20.75;;;17.02;;
18947;SDS011;9607;51.600;7.558;2023-05-10T09:41:46;21.48;;;17.35;;
18947;SDS011;9607;51.600;7.558;2023-05-10T09:44:17;21.02;;;16.15;;
18947;SDS011;9607;51.600;7.558;2023-05-10T09:46:48;23.27;;;17.80;;
18947;SDS011;9607;51.600;7.558;2023-05-10T09:49:18;26.42;;;18.70;;
18947;SDS011;9607;51.600;7.558;2023-05-10T09:51:45;23.85;;;17.08;;
18947;SDS011;9607;51.600;7.558;2023-05-10T09:54:13;24.95;;;19.00;;
18947;SDS011;9607;51.600;7.558;2023-05-10T09:56:41;22.70;;;17.80;;
18947;SDS011;9607;51.600;7.558;2023-05-10T09:59:09;19.92;;;15.95;;
18947;SDS011;9607;51.600;7.558;2023-05-10T10:01:39;24.27;;;17.58;;
18947;SDS011;9607;51.600;7.558;2023-05-10T10:04:08;20.95;;;17.63;;
18947;SDS011;9607;51.600;7.558;2023-05-10T10:06:36;22.67;;;16.55;;
18947;SDS011;9607;51.600;7.558;2023-05-10T10:09:03;21.63;;;15.23;;
18947;SDS011;9607;51.600;7.558;2023-05-10T10:11:31;18.80;;;14.68;;
18947;SDS011;9607;51.600;7.558;2023-05-10T10:14:00;15.85;;;13.10;;
18947;SDS011;9607;51.600;7.558;2023-05-10T10:16:27;18.85;;;13.40;;
18947;SDS011;9607;51.600;7.558;2023-05-10T10:18:57;16.85;;;12.52;;
18947;SDS011;9607;51.600;7.558;2023-05-10T10:21:24;15.80;;;12.48;;
18947;SDS011;9607;51.600;7.558;2023-05-10T10:23:51;15.90;;;11.88;;
18947;SDS011;9607;51.600;7.558;2023-05-10T10:26:18;13.50;;;11.07;;
18947;SDS011;9607;51.600;7.558;2023-05-10T10:28:48;15.68;;;12.43;;
18947;SDS011;9607;51.600;7.558;2023-05-10T10:31:21;12.95;;;10.23;;
18947;SDS011;9607;51.600;7.558;2023-05-10T10:33:59;9.15;;;8.10;;
18947;SDS011;9607;51.600;7.558;2023-05-10T10:36:28;9.57;;;8.57;;
18947;SDS011;9607;51.600;7.558;2023-05-10T10:38:59;12.57;;;10.43;;
18947;SDS011;9607;51.600;7.558;2023-05-10T10:41:27;10.93;;;9.82;;
18947;SDS011;9607;51.600;7.558;2023-05-10T10:47:04;11.38;;;9.93;;
18947;SDS011;9607;51.600;7.558;2023-05-10T10:49:38;11.68;;;10.18;;
18947;SDS011;9607;51.600;7.558;2023-05-10T10:52:13;12.65;;;10.90;;
18947;SDS011;9607;51.600;7.558;2023-05-10T10:54:54;13.07;;;11.63;;
18947;SDS011;9607;51.600;7.558;2023-05-10T10:57:25;13.00;;;11.45;;
18947;SDS011;9607;51.600;7.558;2023-05-10T11:02:53;14.77;;;11.60;;
18947;SDS011;9607;51.600;7.558;2023-05-10T11:05:25;12.95;;;11.38;;
18947;SDS011;9607;51.600;7.558;2023-05-10T11:08:07;13.77;;;10.00;;
18947;SDS011;9607;51.600;7.558;2023-05-10T11:10:39;10.43;;;9.27;;
18947;SDS011;9607;51.600;7.558;2023-05-10T11:13:07;11.02;;;9.32;;
18947;SDS011;9607;51.600;7.558;2023-05-10T11:15:36;11.93;;;10.07;;
18947;SDS011;9607;51.600;7.558;2023-05-10T11:18:16;22.63;;;17.50;;
18947;SDS011;9607;51.600;7.558;2023-05-10T11:20:46;26.45;;;20.60;;
18947;SDS011;9607;51.600;7.558;2023-05-10T11:23:17;26.00;;;21.33;;
18947;SDS011;9607;51.600;7.558;2023-05-10T11:25:46;29.52;;;22.67;;
18947;SDS011;9607;51.600;7.558;2023-05-10T11:28:16;25.05;;;19.10;;
18947;SDS011;9607;51.600;7.558;2023-05-10T11:30:44;30.67;;;21.35;;
18947;SDS011;9607;51.600;7.558;2023-05-10T11:33:14;29.35;;;20.83;;
18947;SDS011;9607;51.600;7.558;2023-05-10T11:35:42;26.48;;;19.88;;
18947;SDS011;9607;51.600;7.558;2023-05-10T11:38:11;31.88;;;21.85;;
18947;SDS011;9607;51.600;7.558;2023-05-10T11:40:39;30.75;;;22.05;;
18947;SDS011;9607;51.600;7.558;2023-05-10T11:43:07;25.80;;;19.00;;
18947;SDS011;9607;51.600;7.558;2023-05-10T11:45:39;27.08;;;20.38;;
18947;SDS011;9607;51.600;7.558;2023-05-10T11:48:07;24.05;;;19.80;;
18947;SDS011;9607;51.600;7.558;2023-05-10T11:50:34;26.88;;;21.42;;
18947;SDS011;9607;51.600;7.558;2023-05-10T11:53:01;26.48;;;18.77;;
18947;SDS011;9607;51.600;7.558;2023-05-10T11:55:29;21.00;;;16.95;;
18947;SDS011;9607;51.600;7.558;2023-05-10T11:58:00;16.30;;;14.32;;
18947;SDS011;9607;51.600;7.558;2023-05-10T12:00:27;17.45;;;14.70;;
18947;SDS011;9607;51.600;7.558;2023-05-10T12:02:55;16.27;;;14.25;;
18947;SDS011;9607;51.600;7.558;2023-05-10T12:05:22;15.50;;;13.55;;
18947;SDS011;9607;51.600;7.558;2023-05-10T12:07:49;18.92;;;15.60;;
18947;SDS011;9607;51.600;7.558;2023-05-10T12:10:17;21.13;;;15.23;;
18947;SDS011;9607;51.600;7.558;2023-05-10T12:12:53;17.95;;;13.98;;
18947;SDS011;9607;51.600;7.558;2023-05-10T12:15:21;21.83;;;18.77;;
18947;SDS011;9607;51.600;7.558;2023-05-10T12:17:49;24.35;;;18.80;;
18947;SDS011;9607;51.600;7.558;2023-05-10T12:20:17;20.92;;;16.27;;
18947;SDS011;9607;51.600;7.558;2023-05-10T12:22:46;23.20;;;20.70;;
18947;SDS011;9607;51.600;7.558;2023-05-10T12:25:15;22.73;;;20.42;;
18947;SDS011;9607;51.600;7.558;2023-05-10T12:27:47;21.00;;;18.77;;
18947;SDS011;9607;51.600;7.558;2023-05-10T12:30:19;27.98;;;22.98;;
18947;SDS011;9607;51.600;7.558;2023-05-10T12:32:47;27.52;;;21.25;;
18947;SDS011;9607;51.600;7.558;2023-05-10T12:35:14;20.77;;;18.67;;
18947;SDS011;9607;51.600;7.558;2023-05-10T12:37:42;20.58;;;18.27;;
18947;SDS011;9607;51.600;7.558;2023-05-10T12:40:09;19.52;;;17.02;;
18947;SDS011;9607;51.600;7.558;2023-05-10T12:42:38;17.85;;;15.95;;
18947;SDS011;9607;51.600;7.558;2023-05-10T12:45:06;14.63;;;13.10;;
18947;SDS011;9607;51.600;7.558;2023-05-10T12:47:35;18.42;;;16.60;;
18947;SDS011;9607;51.600;7.558;2023-05-10T12:50:04;16.83;;;15.07;;
18947;SDS011;9607;51.600;7.558;2023-05-10T12:52:32;15.38;;;13.77;;
18947;SDS011;9607;51.600;7.558;2023-05-10T12:54:59;15.27;;;13.75;;
18947;SDS011;9607;51.600;7.558;2023-05-10T12:57:26;16.60;;;14.30;;
18947;SDS011;9607;51.600;7.558;2023-05-10T12:59:53;15.68;;;14.05;;
18947;SDS011;9607;51.600;7.558;2023-05-10T13:02:20;17.27;;;15.68;;
18947;SDS011;9607;51.600;7.558;2023-05-10T13:04:49;16.42;;;14.80;;
18947;SDS011;9607;51.600;7.558;2023-05-10T13:07:16;15.63;;;13.75;;
18947;SDS011;9607;51.600;7.558;2023-05-10T13:09:43;13.23;;;11.55;;
18947;SDS011;9607;51.600;7.558;2023-05-10T13:12:10;14.05;;;11.80;;
18947;SDS011;9607;51.600;7.558;2023-05-10T13:14:37;13.80;;;12.38;;
18947;SDS011;9607;51.600;7.558;2023-05-10T13:17:05;12.70;;;11.48;;
18947;SDS011;9607;51.600;7.558;2023-05-10T13:19:32;14.88;;;11.70;;
18947;SDS011;9607;51.600;7.558;2023-05-10T13:22:01;13.02;;;11.00;;
18947;SDS011;9607;51.600;7.558;2023-05-10T13:24:27;9.90;;;8.82;;
18947;SDS011;9607;51.600;7.558;2023-05-10T13:26:54;9.40;;;8.27;;
18947;SDS011;9607;51.600;7.558;2023-05-10T13:29:21;10.40;;;9.35;;
18947;SDS011;9607;51.600;7.558;2023-05-10T13:31:48;12.32;;;10.85;;
18947;SDS011;9607;51.600;7.558;2023-05-10T13:34:15;7.53;;;6.72;;
18947;SDS011;9607;51.600;7.558;2023-05-10T13:36:42;9.25;;;7.40;;
18947;SDS011;9607;51.600;7.558;2023-05-10T13:39:10;8.18;;;7.38;;
18947;SDS011;9607;51.600;7.558;2023-05-10T13:41:37;7.28;;;6.57;;
18947;SDS011;9607;51.600;7.558;2023-05-10T13:44:03;9.27;;;7.85;;
18947;SDS011;9607;51.600;7.558;2023-05-10T13:46:31;7.45;;;6.75;;
18947;SDS011;9607;51.600;7.558;2023-05-10T13:48:58;8.23;;;6.35;;
18947;SDS011;9607;51.600;7.558;2023-05-10T13:51:25;10.63;;;7.75;;
18947;SDS011;9607;51.600;7.558;2023-05-10T13:53:51;8.20;;;7.40;;
18947;SDS011;9607;51.600;7.558;2023-05-10T13:56:20;9.63;;;8.68;;
18947;SDS011;9607;51.600;7.558;2023-05-10T13:58:46;13.93;;;12.10;;
18947;SDS011;9607;51.600;7.558;2023-05-10T14:01:13;12.93;;;11.70;;
18947;SDS011;9607;51.600;7.558;2023-05-10T14:03:40;11.50;;;10.30;;
18947;SDS011;9607;51.600;7.558;2023-05-10T14:06:07;16.33;;;13.52;;
18947;SDS011;9607;51.600;7.558;2023-05-10T14:08:34;14.02;;;12.55;;
18947;SDS011;9607;51.600;7.558;2023-05-10T14:11:01;13.20;;;11.82;;
18947;SDS011;9607;51.600;7.558;2023-05-10T14:13:29;12.85;;;11.65;;
18947;SDS011;9607;51.600;7.558;2023-05-10T14:15:56;11.38;;;10.27;;
18947;SDS011;9607;51.600;7.558;2023-05-10T14:18:25;11.25;;;9.52;;
18947;SDS011;9607;51.600;7.558;2023-05-10T14:20:52;9.10;;;8.18;;
18947;SDS011;9607;51.600;7.558;2023-05-10T14:23:19;11.30;;;9.32;;
18947;SDS011;9607;51.600;7.558;2023-05-10T14:25:49;13.45;;;12.02;;
18947;SDS011;9607;51.600;7.558;2023-05-10T14:28:16;10.82;;;9.05;;
18947;SDS011;9607;51.600;7.558;2023-05-10T14:30:44;9.43;;;8.30;;
18947;SDS011;9607;51.600;7.558;2023-05-10T14:33:11;7.38;;;6.68;;
18947;SDS011;9607;51.600;7.558;2023-05-10T14:35:38;7.53;;;6.85;;
18947;SDS011;9607;51.600;7.558;2023-05-10T14:38:05;9.93;;;8.35;;
18947;SDS011;9607;51.600;7.558;2023-05-10T14:40:32;8.32;;;7.50;;
18947;SDS011;9607;51.600;7.558;2023-05-10T14:42:59;9.65;;;8.55;;
18947;SDS011;9607;51.600;7.558;2023-05-10T14:45:26;9.88;;;7.20;;
18947;SDS011;9607;51.600;7.558;2023-05-10T14:47:54;9.23;;;5.47;;
18947;SDS011;9607;51.600;7.558;2023-05-10T14:50:21;5.18;;;4.68;;
18947;SDS011;9607;51.600;7.558;2023-05-10T14:52:47;8.63;;;7.10;;
18947;SDS011;9607;51.600;7.558;2023-05-10T14:55:15;6.20;;;5.60;;
18947;SDS011;9607;51.600;7.558;2023-05-10T14:57:42;7.63;;;5.53;;